Decoded Metar for LFBO (TOULOUSE BLAGNAC in FRANCE) (IATA:TLS) | Meteo·Mobile Aviation Weather
aviador You're here:

LFBO Decoded Metar

TOULOUSE BLAGNAC in FRANCE
Report Time2019-04-23 08:00:00
UTC Time2019-04-23 08:18:10
Flight Rules mvfr MVFR
Wind130° at 16 kt
W.Decomp.*RWY 14: 15.8 kt HW 2.8 kt LCW
Visibility9999 m
Phenomena:N/A
Clouds:Broken 020 Hf
Broken 025 Hf
Expected CloudBase > 2,000 ft AGL from Temp-Dew spread
Ceiling2,000 ft
Temp15°C (ISA +1)
Dew Point10°C (72% RH)
AAT9.3°C
QNH0996 hPa
Density Alt1,365 ft
Elevation502 ft
Report Wrong Elevation
Raw Report
LFBO 230800Z AUTO 13016KT 9999 BKN020 BKN025 15/10 Q0996 NOSIG=

Extra information for LFBO:More info

Metar Taf Metar & Taf Last 4 Metars F.Rules Stats Wind Profile Meteogram Temp Stats Airport Information Weather charts Add Link Nearby VenuesMetar ALERT Operation Metar Decoded Social comments